sensor_id;sensor_type;location;lat;lon;timestamp;pressure;altitude;pressure_sealevel;temperature;humidity
49297;BME280;35163;48.878;18.040;2023-02-12T00:02:01;99706.72;;;4.83;80.80
49297;BME280;35163;48.878;18.040;2023-02-12T00:04:28;99705.94;;;4.89;80.57
49297;BME280;35163;48.878;18.040;2023-02-12T00:06:55;99711.97;;;4.92;79.80
49297;BME280;35163;48.878;18.040;2023-02-12T00:09:21;99697.53;;;4.99;79.37
49297;BME280;35163;48.878;18.040;2023-02-12T00:11:48;99706.91;;;5.00;79.38
49297;BME280;35163;48.878;18.040;2023-02-12T00:14:14;99713.78;;;5.01;79.63
49297;BME280;35163;48.878;18.040;2023-02-12T00:16:41;99693.97;;;4.88;80.69
49297;BME280;35163;48.878;18.040;2023-02-12T00:19:07;99701.69;;;4.89;80.30
49297;BME280;35163;48.878;18.040;2023-02-12T00:21:34;99700.81;;;4.89;80.93
49297;BME280;35163;48.878;18.040;2023-02-12T00:24:01;99705.97;;;4.92;81.00
49297;BME280;35163;48.878;18.040;2023-02-12T00:26:30;99705.97;;;4.92;80.91
49297;BME280;35163;48.878;18.040;2023-02-12T00:28:57;99707.63;;;4.88;80.80
49297;BME280;35163;48.878;18.040;2023-02-12T00:31:28;99720.44;;;4.88;81.27
49297;BME280;35163;48.878;18.040;2023-02-12T00:33:55;99717.94;;;4.93;80.60
49297;BME280;35163;48.878;18.040;2023-02-12T00:36:26;99728.19;;;4.93;80.40
49297;BME280;35163;48.878;18.040;2023-02-12T00:38:54;99720.47;;;4.90;80.71
49297;BME280;35163;48.878;18.040;2023-02-12T00:41:22;99723.88;;;4.89;80.27
49297;BME280;35163;48.878;18.040;2023-02-12T00:43:49;99733.25;;;4.86;80.76
49297;BME280;35163;48.878;18.040;2023-02-12T00:46:16;99726.44;;;4.89;80.92
49297;BME280;35163;48.878;18.040;2023-02-12T00:48:43;99725.56;;;4.86;80.52
49297;BME280;35163;48.878;18.040;2023-02-12T00:51:10;99723.81;;;4.82;81.14
49297;BME280;35163;48.878;18.040;2023-02-12T00:53:36;99728.97;;;4.85;80.88
49297;BME280;35163;48.878;18.040;2023-02-12T00:56:03;99733.28;;;4.90;80.96
49297;BME280;35163;48.878;18.040;2023-02-12T00:58:30;99729.78;;;4.84;81.17
49297;BME280;35163;48.878;18.040;2023-02-12T01:00:57;99730.72;;;4.91;80.80
49297;BME280;35163;48.878;18.040;2023-02-12T01:03:23;99736.72;;;4.90;81.33
49297;BME280;35163;48.878;18.040;2023-02-12T01:05:51;99730.81;;;4.96;81.04
49297;BME280;35163;48.878;18.040;2023-02-12T01:08:18;99738.53;;;4.97;80.74
49297;BME280;35163;48.878;18.040;2023-02-12T01:10:45;99741.91;;;4.98;80.60
49297;BME280;35163;48.878;18.040;2023-02-12T01:13:19;99742.78;;;4.98;80.65
49297;BME280;35163;48.878;18.040;2023-02-12T01:15:46;99747.19;;;5.07;80.06
49297;BME280;35163;48.878;18.040;2023-02-12T01:18:12;99741.16;;;5.05;79.98
49297;BME280;35163;48.878;18.040;2023-02-12T01:20:41;99732.56;;;5.00;80.92
49297;BME280;35163;48.878;18.040;2023-02-12T01:23:08;99731.75;;;5.04;80.92
49297;BME280;35163;48.878;18.040;2023-02-12T01:25:34;99736.03;;;5.04;80.77
49297;BME280;35163;48.878;18.040;2023-02-12T01:28:03;99745.38;;;5.00;80.77
49297;BME280;35163;48.878;18.040;2023-02-12T01:30:29;99751.41;;;5.04;80.80
49297;BME280;35163;48.878;18.040;2023-02-12T01:32:56;99746.28;;;5.04;80.57
49297;BME280;35163;48.878;18.040;2023-02-12T01:35:22;99743.69;;;5.01;80.85
49297;BME280;35163;48.878;18.040;2023-02-12T01:37:49;99746.28;;;5.04;80.77
49297;BME280;35163;48.878;18.040;2023-02-12T01:40:16;99754.81;;;5.01;80.59
49297;BME280;35163;48.878;18.040;2023-02-12T01:42:43;99750.50;;;5.00;80.77
49297;BME280;35163;48.878;18.040;2023-02-12T01:47:41;99768.44;;;5.00;80.31
49297;BME280;35163;48.878;18.040;2023-02-12T01:50:12;99767.66;;;5.04;80.61
49297;BME280;35163;48.878;18.040;2023-02-12T01:52:43;99771.16;;;5.11;79.86
49297;BME280;35163;48.878;18.040;2023-02-12T01:55:11;99767.78;;;5.15;79.58
49297;BME280;35163;48.878;18.040;2023-02-12T01:57:41;99770.28;;;5.10;79.79
49297;BME280;35163;48.878;18.040;2023-02-12T02:00:12;99769.53;;;5.19;79.54
49297;BME280;35163;48.878;18.040;2023-02-12T02:02:44;99776.31;;;5.13;79.92
49297;BME280;35163;48.878;18.040;2023-02-12T02:05:19;99770.25;;;5.07;80.52
49297;BME280;35163;48.878;18.040;2023-02-12T02:07:47;99774.50;;;5.07;80.48
49297;BME280;35163;48.878;18.040;2023-02-12T02:10:14;99788.16;;;5.04;80.71
49297;BME280;35163;48.878;18.040;2023-02-12T02:12:41;99776.25;;;5.06;80.63
49297;BME280;35163;48.878;18.040;2023-02-12T02:15:29;99776.13;;;5.00;81.05
49297;BME280;35163;48.878;18.040;2023-02-12T02:18:01;99776.22;;;5.05;80.93
49297;BME280;35163;48.878;18.040;2023-02-12T02:23:58;99786.25;;;4.88;81.41
49297;BME280;35163;48.878;18.040;2023-02-12T02:26:45;99776.03;;;4.91;81.44
49297;BME280;35163;48.878;18.040;2023-02-12T02:34:53;99788.75;;;4.84;81.89
49297;BME280;35163;48.878;18.040;2023-02-12T02:37:33;99790.50;;;4.85;82.22
49297;BME280;35163;48.878;18.040;2023-02-12T02:42:52;99788.72;;;4.83;82.02
49297;BME280;35163;48.878;18.040;2023-02-12T02:47:58;99797.31;;;4.86;81.77
49297;BME280;35163;48.878;18.040;2023-02-12T02:50:29;99787.97;;;4.89;82.03
49297;BME280;35163;48.878;18.040;2023-02-12T02:53:06;99805.06;;;4.91;81.40
49297;BME280;35163;48.878;18.040;2023-02-12T02:55:41;99809.34;;;4.89;81.67
49297;BME280;35163;48.878;18.040;2023-02-12T02:58:13;99817.84;;;4.88;82.15
49297;BME280;35163;48.878;18.040;2023-02-12T03:00:54;99814.41;;;4.86;82.12
49297;BME280;35163;48.878;18.040;2023-02-12T03:03:41;99823.03;;;4.93;81.81
49297;BME280;35163;48.878;18.040;2023-02-12T03:06:14;99823.09;;;4.94;81.84
49297;BME280;35163;48.878;18.040;2023-02-12T03:08:55;99817.00;;;4.88;82.43
49297;BME280;35163;48.878;18.040;2023-02-12T03:11:24;99819.56;;;4.88;82.50
49297;BME280;35163;48.878;18.040;2023-02-12T03:13:58;99822.19;;;4.92;82.07
49297;BME280;35163;48.878;18.040;2023-02-12T03:16:31;99820.44;;;4.91;81.79
49297;BME280;35163;48.878;18.040;2023-02-12T03:19:15;99813.78;;;5.03;81.83
49297;BME280;35163;48.878;18.040;2023-02-12T03:21:53;99812.03;;;5.02;81.66
49297;BME280;35163;48.878;18.040;2023-02-12T03:24:31;99822.28;;;5.00;81.86
49297;BME280;35163;48.878;18.040;2023-02-12T03:27:10;99818.78;;;4.95;81.89
49297;BME280;35163;48.878;18.040;2023-02-12T03:29:41;99821.47;;;5.03;81.67
49297;BME280;35163;48.878;18.040;2023-02-12T03:34:50;99829.97;;;5.00;81.82
49297;BME280;35163;48.878;18.040;2023-02-12T03:40:44;99824.97;;;5.08;81.58
49297;BME280;35163;48.878;18.040;2023-02-12T03:43:22;99833.63;;;5.16;81.21
49297;BME280;35163;48.878;18.040;2023-02-12T03:45:51;99827.59;;;5.13;81.78
49297;BME280;35163;48.878;18.040;2023-02-12T03:48:26;99833.59;;;5.13;81.80
49297;BME280;35163;48.878;18.040;2023-02-12T03:50:57;99852.38;;;5.14;81.85
49297;BME280;35163;48.878;18.040;2023-02-12T03:53:26;99860.06;;;5.14;81.91
49297;BME280;35163;48.878;18.040;2023-02-12T03:55:59;99853.22;;;5.13;82.21
49297;BME280;35163;48.878;18.040;2023-02-12T03:58:29;99852.31;;;5.07;81.46
49297;BME280;35163;48.878;18.040;2023-02-12T04:00:58;99858.28;;;5.06;81.64
49297;BME280;35163;48.878;18.040;2023-02-12T04:03:26;99863.34;;;5.03;81.59
49297;BME280;35163;48.878;18.040;2023-02-12T04:05:52;99866.69;;;4.97;81.85
49297;BME280;35163;48.878;18.040;2023-02-12T04:08:19;99868.41;;;4.97;81.95
49297;BME280;35163;48.878;18.040;2023-02-12T04:16:21;99882.88;;;4.93;82.10
49297;BME280;35163;48.878;18.040;2023-02-12T04:18:51;99887.94;;;4.90;82.24
49297;BME280;35163;48.878;18.040;2023-02-12T04:24:40;99898.97;;;4.86;83.16
49297;BME280;35163;48.878;18.040;2023-02-12T04:27:11;99897.25;;;4.83;82.95
49297;BME280;35163;48.878;18.040;2023-02-12T04:30:04;99900.75;;;4.89;82.73
49297;BME280;35163;48.878;18.040;2023-02-12T04:32:39;99907.53;;;4.86;83.22
49297;BME280;35163;48.878;18.040;2023-02-12T04:37:54;99906.66;;;4.84;82.93
49297;BME280;35163;48.878;18.040;2023-02-12T04:40:24;99905.84;;;4.87;82.95
49297;BME280;35163;48.878;18.040;2023-02-12T04:42:52;99910.09;;;4.86;82.81
49297;BME280;35163;48.878;18.040;2023-02-12T04:45:25;99912.66;;;4.86;82.88
49297;BME280;35163;48.878;18.040;2023-02-12T04:47:53;99900.75;;;4.89;82.79
49297;BME280;35163;48.878;18.040;2023-02-12T04:50:20;99906.66;;;4.86;82.66
49297;BME280;35163;48.878;18.040;2023-02-12T04:52:46;99916.13;;;4.89;82.58
49297;BME280;35163;48.878;18.040;2023-02-12T04:55:13;99915.97;;;4.79;82.89
49297;BME280;35163;48.878;18.040;2023-02-12T04:57:40;99920.19;;;4.76;82.42
49297;BME280;35163;48.878;18.040;2023-02-12T05:00:10;99918.34;;;4.67;83.24
49297;BME280;35163;48.878;18.040;2023-02-12T05:02:37;99919.88;;;4.57;83.60
49297;BME280;35163;48.878;18.040;2023-02-12T05:05:03;99934.50;;;4.62;83.91
49297;BME280;35163;48.878;18.040;2023-02-12T05:07:30;99938.97;;;4.74;83.33
49297;BME280;35163;48.878;18.040;2023-02-12T05:09:57;99942.38;;;4.73;84.07
49297;BME280;35163;48.878;18.040;2023-02-12T05:12:23;99942.44;;;4.78;83.64
49297;BME280;35163;48.878;18.040;2023-02-12T05:14:50;99936.47;;;4.79;83.15
49297;BME280;35163;48.878;18.040;2023-02-12T05:17:16;99946.72;;;4.79;83.38
49297;BME280;35163;48.878;18.040;2023-02-12T05:19:43;99949.25;;;4.78;83.22
49297;BME280;35163;48.878;18.040;2023-02-12T05:22:10;99954.38;;;4.78;83.16
49297;BME280;35163;48.878;18.040;2023-02-12T05:24:36;99949.28;;;4.79;83.17
49297;BME280;35163;48.878;18.040;2023-02-12T05:27:03;99964.69;;;4.81;83.21
49297;BME280;35163;48.878;18.040;2023-02-12T05:29:29;99965.56;;;4.81;83.23
49297;BME280;35163;48.878;18.040;2023-02-12T05:31:56;99967.22;;;4.79;83.11
49297;BME280;35163;48.878;18.040;2023-02-12T05:34:23;99970.69;;;4.81;83.39
49297;BME280;35163;48.878;18.040;2023-02-12T05:36:49;99969.78;;;4.79;82.98
49297;BME280;35163;48.878;18.040;2023-02-12T05:39:16;99968.03;;;4.77;83.40
49297;BME280;35163;48.878;18.040;2023-02-12T05:41:42;99980.97;;;4.83;82.87
49297;BME280;35163;48.878;18.040;2023-02-12T05:44:09;99979.25;;;4.83;83.21
49297;BME280;35163;48.878;18.040;2023-02-12T05:46:40;99984.41;;;4.83;82.79
49297;BME280;35163;48.878;18.040;2023-02-12T05:49:08;99992.06;;;4.82;82.80
49297;BME280;35163;48.878;18.040;2023-02-12T05:51:36;99998.06;;;4.82;83.05
49297;BME280;35163;48.878;18.040;2023-02-12T05:54:04;99993.78;;;4.83;83.30
49297;BME280;35163;48.878;18.040;2023-02-12T05:56:34;100000.66;;;4.84;82.94
49297;BME280;35163;48.878;18.040;2023-02-12T05:59:07;100000.63;;;4.82;82.67
49297;BME280;35163;48.878;18.040;2023-02-12T06:01:39;100011.69;;;4.81;82.93
49297;BME280;35163;48.878;18.040;2023-02-12T06:04:09;100015.16;;;4.83;83.46
49297;BME280;35163;48.878;18.040;2023-02-12T06:06:36;100016.94;;;4.88;83.33
49297;BME280;35163;48.878;18.040;2023-02-12T06:09:02;100027.19;;;4.88;83.24
49297;BME280;35163;48.878;18.040;2023-02-12T06:11:29;100021.16;;;4.85;83.27
49297;BME280;35163;48.878;18.040;2023-02-12T06:13:56;100034.84;;;4.86;83.22
49297;BME280;35163;48.878;18.040;2023-02-12T06:16:26;100035.75;;;4.90;83.04
49297;BME280;35163;48.878;18.040;2023-02-12T06:18:54;100038.25;;;4.86;83.14
49297;BME280;35163;48.878;18.040;2023-02-12T06:21:23;100042.56;;;4.88;83.39
49297;BME280;35163;48.878;18.040;2023-02-12T06:23:51;100044.34;;;4.92;82.84
49297;BME280;35163;48.878;18.040;2023-02-12T06:26:18;100045.22;;;4.92;82.98
49297;BME280;35163;48.878;18.040;2023-02-12T06:28:45;100049.53;;;4.95;82.80
49297;BME280;35163;48.878;18.040;2023-02-12T06:31:32;100057.22;;;4.95;83.27
49297;BME280;35163;48.878;18.040;2023-02-12T06:34:05;100064.06;;;4.94;82.93
49297;BME280;35163;48.878;18.040;2023-02-12T06:36:32;100071.78;;;4.96;82.86
49297;BME280;35163;48.878;18.040;2023-02-12T06:39:00;100071.66;;;4.90;83.54
49297;BME280;35163;48.878;18.040;2023-02-12T06:41:28;100086.25;;;4.94;83.14
49297;BME280;35163;48.878;18.040;2023-02-12T06:43:57;100085.34;;;4.92;83.43
49297;BME280;35163;48.878;18.040;2023-02-12T06:46:24;100077.72;;;4.95;83.22
49297;BME280;35163;48.878;18.040;2023-02-12T06:48:52;100088.88;;;4.97;82.99
49297;BME280;35163;48.878;18.040;2023-02-12T06:51:20;100087.16;;;4.96;83.17
49297;BME280;35163;48.878;18.040;2023-02-12T06:53:51;100079.50;;;4.97;83.31
49297;BME280;35163;48.878;18.040;2023-02-12T06:56:19;100092.38;;;5.01;83.10
49297;BME280;35163;48.878;18.040;2023-02-12T06:58:51;100091.50;;;5.00;82.80
49297;BME280;35163;48.878;18.040;2023-02-12T07:01:21;100097.50;;;5.02;83.09
49297;BME280;35163;48.878;18.040;2023-02-12T07:06:16;100107.03;;;5.08;82.19
49297;BME280;35163;48.878;18.040;2023-02-12T07:08:42;100102.75;;;5.08;82.22
49297;BME280;35163;48.878;18.040;2023-02-12T07:11:10;100106.16;;;5.07;82.25
49297;BME280;35163;48.878;18.040;2023-02-12T07:13:37;100114.69;;;5.06;82.29
49297;BME280;35163;48.878;18.040;2023-02-12T07:16:09;100112.22;;;5.11;82.30
49297;BME280;35163;48.878;18.040;2023-02-12T07:18:37;100116.47;;;5.10;81.81
49297;BME280;35163;48.878;18.040;2023-02-12T07:21:05;100113.09;;;5.13;81.71
49297;BME280;35163;48.878;18.040;2023-02-12T07:23:32;100125.97;;;5.16;81.49
49297;BME280;35163;48.878;18.040;2023-02-12T07:26:04;100126.97;;;5.25;81.38
49297;BME280;35163;48.878;18.040;2023-02-12T07:28:31;100128.81;;;5.32;81.25
49297;BME280;35163;48.878;18.040;2023-02-12T07:31:11;100131.47;;;5.38;81.04
49297;BME280;35163;48.878;18.040;2023-02-12T07:33:39;100125.59;;;5.44;81.40
49297;BME280;35163;48.878;18.040;2023-02-12T07:36:09;100126.59;;;5.52;81.49
49297;BME280;35163;48.878;18.040;2023-02-12T07:38:36;100131.84;;;5.62;80.95
49297;BME280;35163;48.878;18.040;2023-02-12T07:43:40;100140.72;;;5.81;80.32
49297;BME280;35163;48.878;18.040;2023-02-12T07:46:09;100141.78;;;5.94;79.58
49297;BME280;35163;48.878;18.040;2023-02-12T07:48:36;100137.53;;;5.98;79.48
49297;BME280;35163;48.878;18.040;2023-02-12T07:51:05;100140.06;;;5.93;79.21
49297;BME280;35163;48.878;18.040;2023-02-12T07:53:32;100149.53;;;5.97;79.17
49297;BME280;35163;48.878;18.040;2023-02-12T07:58:31;100152.19;;;6.03;78.80
49297;BME280;35163;48.878;18.040;2023-02-12T08:00:58;100149.69;;;6.06;78.55
49297;BME280;35163;48.878;18.040;2023-02-12T08:03:27;100158.31;;;6.10;78.72
49297;BME280;35163;48.878;18.040;2023-02-12T08:05:54;100156.63;;;6.11;78.23
49297;BME280;35163;48.878;18.040;2023-02-12T08:08:21;100160.16;;;6.19;77.88
49297;BME280;35163;48.878;18.040;2023-02-12T08:10:48;100165.38;;;6.25;77.77
49297;BME280;35163;48.878;18.040;2023-02-12T08:13:14;100171.44;;;6.30;77.15
49297;BME280;35163;48.878;18.040;2023-02-12T08:15:41;100176.63;;;6.34;77.00
49297;BME280;35163;48.878;18.040;2023-02-12T08:18:07;100175.75;;;6.31;76.30
49297;BME280;35163;48.878;18.040;2023-02-12T08:20:34;100185.31;;;6.42;76.17
49297;BME280;35163;48.878;18.040;2023-02-12T08:23:01;100182.03;;;6.52;76.19
49297;BME280;35163;48.878;18.040;2023-02-12T08:25:27;100188.88;;;6.50;75.43
49297;BME280;35163;48.878;18.040;2023-02-12T08:27:54;100191.53;;;6.60;75.03
49297;BME280;35163;48.878;18.040;2023-02-12T08:30:20;100200.13;;;6.62;75.19
49297;BME280;35163;48.878;18.040;2023-02-12T08:32:50;100194.91;;;6.52;75.20
49297;BME280;35163;48.878;18.040;2023-02-12T08:35:16;100197.47;;;6.52;75.13
49297;BME280;35163;48.878;18.040;2023-02-12T08:37:43;100203.47;;;6.56;75.51
49297;BME280;35163;48.878;18.040;2023-02-12T08:40:10;100200.06;;;6.54;75.29
49297;BME280;35163;48.878;18.040;2023-02-12T08:42:39;100198.41;;;6.59;75.45
49297;BME280;35163;48.878;18.040;2023-02-12T08:45:06;100198.47;;;6.64;75.10
49297;BME280;35163;48.878;18.040;2023-02-12T08:47:32;100210.56;;;6.73;74.94
49297;BME280;35163;48.878;18.040;2023-02-12T08:49:59;100199.50;;;6.78;74.80
49297;BME280;35163;48.878;18.040;2023-02-12T08:52:25;100205.56;;;6.84;74.75
49297;BME280;35163;48.878;18.040;2023-02-12T08:54:52;100205.56;;;6.85;74.56
49297;BME280;35163;48.878;18.040;2023-02-12T08:57:19;100213.41;;;6.93;74.28
49297;BME280;35163;48.878;18.040;2023-02-12T08:59:47;100210.88;;;6.98;74.14
49297;BME280;35163;48.878;18.040;2023-02-12T09:02:14;100212.69;;;7.05;74.05
49297;BME280;35163;48.878;18.040;2023-02-12T09:04:40;100221.31;;;7.09;73.70
49297;BME280;35163;48.878;18.040;2023-02-12T09:07:07;100224.81;;;7.15;73.20
49297;BME280;35163;48.878;18.040;2023-02-12T09:09:36;100226.50;;;7.13;73.30
49297;BME280;35163;48.878;18.040;2023-02-12T09:12:03;100228.34;;;7.25;72.67
49297;BME280;35163;48.878;18.040;2023-02-12T09:14:29;100228.56;;;7.47;72.06
49297;BME280;35163;48.878;18.040;2023-02-12T09:16:56;100232.06;;;7.56;71.99
49297;BME280;35163;48.878;18.040;2023-02-12T09:19:23;100236.44;;;7.63;71.08
49297;BME280;35163;48.878;18.040;2023-02-12T09:21:52;100232.25;;;7.73;70.48
49297;BME280;35163;48.878;18.040;2023-02-12T09:24:22;100240.88;;;7.80;70.27
49297;BME280;35163;48.878;18.040;2023-02-12T09:26:48;100248.66;;;7.83;69.89
49297;BME280;35163;48.878;18.040;2023-02-12T09:29:15;100242.66;;;7.85;69.98
49297;BME280;35163;48.878;18.040;2023-02-12T09:31:41;100251.41;;;8.00;68.98
49297;BME280;35163;48.878;18.040;2023-02-12T09:34:09;100260.84;;;8.01;68.54
49297;BME280;35163;48.878;18.040;2023-02-12T09:36:35;100260.81;;;7.96;68.98
49297;BME280;35163;48.878;18.040;2023-02-12T09:39:02;100260.72;;;7.87;68.81
49297;BME280;35163;48.878;18.040;2023-02-12T09:44:09;100274.56;;;7.98;68.98
49297;BME280;35163;48.878;18.040;2023-02-12T09:46:55;100272.06;;;8.08;69.97
49297;BME280;35163;48.878;18.040;2023-02-12T09:49:48;100275.44;;;8.03;70.93
49297;BME280;35163;48.878;18.040;2023-02-12T09:52:25;100276.31;;;8.02;71.58
49297;BME280;35163;48.878;18.040;2023-02-12T09:54:53;100272.03;;;8.05;71.52
49297;BME280;35163;48.878;18.040;2023-02-12T09:57:36;100271.16;;;8.06;70.93
49297;BME280;35163;48.878;18.040;2023-02-12T10:00:14;100270.34;;;8.05;70.45
49297;BME280;35163;48.878;18.040;2023-02-12T10:02:41;100271.16;;;8.06;69.99
49297;BME280;35163;48.878;18.040;2023-02-12T10:05:19;100274.63;;;8.06;68.88
49297;BME280;35163;48.878;18.040;2023-02-12T10:11:13;100281.47;;;8.06;67.57
49297;BME280;35163;48.878;18.040;2023-02-12T10:20:19;100286.72;;;8.15;66.07
49297;BME280;35163;48.878;18.040;2023-02-12T10:28:25;100285.19;;;8.36;64.38
49297;BME280;35163;48.878;18.040;2023-02-12T10:33:44;100289.59;;;8.54;63.90
49297;BME280;35163;48.878;18.040;2023-02-12T10:36:41;100288.84;;;8.66;63.23
49297;BME280;35163;48.878;18.040;2023-02-12T10:42:08;100291.53;;;8.85;62.14
49297;BME280;35163;48.878;18.040;2023-02-12T10:44:37;100291.59;;;8.93;61.61
49297;BME280;35163;48.878;18.040;2023-02-12T10:47:03;100286.44;;;8.96;61.67
49297;BME280;35163;48.878;18.040;2023-02-12T10:49:31;100286.44;;;8.97;61.82
49297;BME280;35163;48.878;18.040;2023-02-12T10:52:16;100292.50;;;9.01;61.53
49297;BME280;35163;48.878;18.040;2023-02-12T10:54:47;100290.78;;;9.06;61.41
49297;BME280;35163;48.878;18.040;2023-02-12T10:57:20;100283.91;;;9.07;59.99
49297;BME280;35163;48.878;18.040;2023-02-12T10:59:50;100287.38;;;9.15;60.33
49297;BME280;35163;48.878;18.040;2023-02-12T11:02:31;100285.72;;;9.25;61.33
49297;BME280;35163;48.878;18.040;2023-02-12T11:04:59;100278.00;;;9.38;60.90
49297;BME280;35163;48.878;18.040;2023-02-12T11:07:28;100271.09;;;9.30;59.01
49297;BME280;35163;48.878;18.040;2023-02-12T11:09:55;100270.22;;;9.27;58.58
49297;BME280;35163;48.878;18.040;2023-02-12T11:12:33;100258.19;;;9.36;58.16
49297;BME280;35163;48.878;18.040;2023-02-12T11:15:22;100265.13;;;9.39;56.93
49297;BME280;35163;48.878;18.040;2023-02-12T11:18:06;100262.47;;;9.27;56.82
49297;BME280;35163;48.878;18.040;2023-02-12T11:20:49;100268.47;;;9.22;56.99
49297;BME280;35163;48.878;18.040;2023-02-12T11:23:39;100271.03;;;9.18;56.82
49297;BME280;35163;48.878;18.040;2023-02-12T11:26:24;100269.34;;;9.17;56.98
49297;BME280;35163;48.878;18.040;2023-02-12T11:28:57;100270.22;;;9.23;56.27
49297;BME280;35163;48.878;18.040;2023-02-12T11:31:27;100276.16;;;9.08;56.15
49297;BME280;35163;48.878;18.040;2023-02-12T11:34:15;100272.69;;;9.02;55.73
49297;BME280;35163;48.878;18.040;2023-02-12T11:36:47;100272.66;;;8.95;56.11
49297;BME280;35163;48.878;18.040;2023-02-12T11:39:35;100270.88;;;8.82;56.39
49297;BME280;35163;48.878;18.040;2023-02-12T11:42:21;100270.00;;;8.77;56.94
49297;BME280;35163;48.878;18.040;2023-02-12T11:44:58;100264.84;;;8.80;56.62
49297;BME280;35163;48.878;18.040;2023-02-12T11:47:27;100261.44;;;8.81;57.43
49297;BME280;35163;48.878;18.040;2023-02-12T11:50:02;100274.34;;;8.82;57.60
49297;BME280;35163;48.878;18.040;2023-02-12T11:52:35;100264.84;;;8.83;57.62
49297;BME280;35163;48.878;18.040;2023-02-12T11:55:06;100271.72;;;8.78;56.71
49297;BME280;35163;48.878;18.040;2023-02-12T11:57:48;100270.88;;;8.80;56.79
49297;BME280;35163;48.878;18.040;2023-02-12T12:06:04;100271.78;;;8.87;54.44
49297;BME280;35163;48.878;18.040;2023-02-12T12:11:48;100274.38;;;8.90;53.40
49297;BME280;35163;48.878;18.040;2023-02-12T12:14:38;100267.47;;;8.87;53.57
49297;BME280;35163;48.878;18.040;2023-02-12T12:17:36;100270.91;;;8.88;53.59
49297;BME280;35163;48.878;18.040;2023-02-12T12:20:26;100282.09;;;8.93;53.16
49297;BME280;35163;48.878;18.040;2023-02-12T12:23:04;100263.22;;;8.93;53.26
49297;BME280;35163;48.878;18.040;2023-02-12T12:25:51;100268.31;;;8.88;51.71
49297;BME280;35163;48.878;18.040;2023-02-12T12:31:13;100271.78;;;8.93;50.97
49297;BME280;35163;48.878;18.040;2023-02-12T12:33:51;100259.84;;;9.13;50.67
49297;BME280;35163;48.878;18.040;2023-02-12T12:39:21;100258.16;;;9.24;49.59
49297;BME280;35163;48.878;18.040;2023-02-12T12:53:14;100251.22;;;9.09;48.94
49297;BME280;35163;48.878;18.040;2023-02-12T13:01:27;100240.91;;;9.07;48.73
49297;BME280;35163;48.878;18.040;2023-02-12T13:06:49;100239.94;;;8.85;49.67
49297;BME280;35163;48.878;18.040;2023-02-12T13:12:32;100242.50;;;8.79;51.21
49297;BME280;35163;48.878;18.040;2023-02-12T13:26:58;100238.94;;;8.58;51.36
49297;BME280;35163;48.878;18.040;2023-02-12T13:32:37;100240.66;;;8.62;50.13
49297;BME280;35163;48.878;18.040;2023-02-12T13:35:14;100241.47;;;8.51;50.73
49297;BME280;35163;48.878;18.040;2023-02-12T13:37:46;100249.19;;;8.51;50.03
49297;BME280;35163;48.878;18.040;2023-02-12T13:40:20;100253.41;;;8.40;50.46
49297;BME280;35163;48.878;18.040;2023-02-12T13:43:35;100258.56;;;8.45;50.86
49297;BME280;35163;48.878;18.040;2023-02-12T13:46:19;100264.59;;;8.45;51.07
49297;BME280;35163;48.878;18.040;2023-02-12T13:48:56;100263.72;;;8.43;50.88
49297;BME280;35163;48.878;18.040;2023-02-12T13:51:45;100257.66;;;8.38;50.76
49297;BME280;35163;48.878;18.040;2023-02-12T13:54:21;100269.66;;;8.33;50.43
49297;BME280;35163;48.878;18.040;2023-02-12T13:56:56;100256.75;;;8.30;51.15
49297;BME280;35163;48.878;18.040;2023-02-12T14:02:23;100257.63;;;8.27;51.88
49297;BME280;35163;48.878;18.040;2023-02-12T14:07:19;100263.66;;;8.31;52.65
49297;BME280;35163;48.878;18.040;2023-02-12T14:12:36;100267.81;;;8.16;53.18
49297;BME280;35163;48.878;18.040;2023-02-12T14:15:29;100262.63;;;8.07;53.02
49297;BME280;35163;48.878;18.040;2023-02-12T14:20:28;100265.22;;;8.11;54.10
49297;BME280;35163;48.878;18.040;2023-02-12T14:27:52;100267.75;;;8.05;55.46
49297;BME280;35163;48.878;18.040;2023-02-12T14:33:22;100273.75;;;8.06;55.53
49297;BME280;35163;48.878;18.040;2023-02-12T14:41:36;100285.03;;;8.17;55.40
49297;BME280;35163;48.878;18.040;2023-02-12T14:49:32;100298.69;;;8.08;55.23
49297;BME280;35163;48.878;18.040;2023-02-12T14:54:49;100294.44;;;8.10;55.15
49297;BME280;35163;48.878;18.040;2023-02-12T14:57:28;100298.69;;;8.07;53.87
49297;BME280;35163;48.878;18.040;2023-02-12T15:00:24;100310.66;;;8.03;53.24
49297;BME280;35163;48.878;18.040;2023-02-12T15:05:44;100316.66;;;8.02;53.42
49297;BME280;35163;48.878;18.040;2023-02-12T15:11:29;100312.25;;;7.90;53.96
49297;BME280;35163;48.878;18.040;2023-02-12T15:14:04;100301.94;;;7.92;54.70
49297;BME280;35163;48.878;18.040;2023-02-12T15:16:37;100304.47;;;7.85;55.30
49297;BME280;35163;48.878;18.040;2023-02-12T15:21:50;100307.94;;;7.86;55.47
49297;BME280;35163;48.878;18.040;2023-02-12T15:24:23;100302.78;;;7.86;55.51
49297;BME280;35163;48.878;18.040;2023-02-12T15:26:52;100301.09;;;7.88;55.51
49297;BME280;35163;48.878;18.040;2023-02-12T15:29:30;100295.06;;;7.86;55.53
49297;BME280;35163;48.878;18.040;2023-02-12T15:32:03;100301.91;;;7.84;55.99
49297;BME280;35163;48.878;18.040;2023-02-12T15:34:33;100300.09;;;7.76;56.52
49297;BME280;35163;48.878;18.040;2023-02-12T15:37:04;100298.34;;;7.71;56.87
49297;BME280;35163;48.878;18.040;2023-02-12T15:39:40;100301.59;;;7.56;57.67
49297;BME280;35163;48.878;18.040;2023-02-12T15:42:32;100305.03;;;7.56;57.72
49297;BME280;35163;48.878;18.040;2023-02-12T15:47:43;100309.22;;;7.45;58.11
49297;BME280;35163;48.878;18.040;2023-02-12T15:50:15;100314.38;;;7.48;58.21
49297;BME280;35163;48.878;18.040;2023-02-12T15:52:44;100315.19;;;7.45;58.49
49297;BME280;35163;48.878;18.040;2023-02-12T15:55:20;100318.56;;;7.38;58.35
49297;BME280;35163;48.878;18.040;2023-02-12T15:57:53;100322.78;;;7.31;58.59
49297;BME280;35163;48.878;18.040;2023-02-12T16:00:27;100323.63;;;7.32;58.56